sensor_id;sensor_type;location;lat;lon;timestamp;P1;durP1;ratioP1;P2;durP2;ratioP2
20802;SDS011;10562;-33.856;151.182;2023-04-16T00:01:43;3.83;;;1.25;;
20802;SDS011;10562;-33.856;151.182;2023-04-16T00:04:14;4.60;;;1.27;;
20802;SDS011;10562;-33.856;151.182;2023-04-16T00:06:45;3.65;;;1.15;;
20802;SDS011;10562;-33.856;151.182;2023-04-16T00:09:16;2.30;;;1.25;;
20802;SDS011;10562;-33.856;151.182;2023-04-16T00:11:46;3.55;;;1.10;;
20802;SDS011;10562;-33.856;151.182;2023-04-16T00:14:17;2.20;;;1.35;;
20802;SDS011;10562;-33.856;151.182;2023-04-16T00:16:50;3.70;;;1.17;;
20802;SDS011;10562;-33.856;151.182;2023-04-16T00:19:21;3.42;;;1.10;;
20802;SDS011;10562;-33.856;151.182;2023-04-16T00:21:52;2.65;;;1.25;;
20802;SDS011;10562;-33.856;151.182;2023-04-16T00:24:22;4.55;;;1.30;;
20802;SDS011;10562;-33.856;151.182;2023-04-16T00:26:53;1.63;;;1.08;;
20802;SDS011;10562;-33.856;151.182;2023-04-16T00:29:24;3.38;;;1.30;;
20802;SDS011;10562;-33.856;151.182;2023-04-16T00:31:58;6.82;;;1.30;;
20802;SDS011;10562;-33.856;151.182;2023-04-16T00:34:28;3.10;;;1.20;;
20802;SDS011;10562;-33.856;151.182;2023-04-16T00:36:59;5.55;;;1.20;;
20802;SDS011;10562;-33.856;151.182;2023-04-16T00:39:30;3.38;;;1.25;;
20802;SDS011;10562;-33.856;151.182;2023-04-16T00:42:01;4.03;;;1.40;;
20802;SDS011;10562;-33.856;151.182;2023-04-16T00:44:31;5.72;;;1.48;;
20802;SDS011;10562;-33.856;151.182;2023-04-16T00:47:05;4.22;;;1.40;;
20802;SDS011;10562;-33.856;151.182;2023-04-16T00:49:35;1.92;;;1.10;;
20802;SDS011;10562;-33.856;151.182;2023-04-16T00:52:07;4.00;;;1.58;;
20802;SDS011;10562;-33.856;151.182;2023-04-16T00:54:39;4.95;;;1.20;;
20802;SDS011;10562;-33.856;151.182;2023-04-16T00:57:10;2.45;;;1.25;;
20802;SDS011;10562;-33.856;151.182;2023-04-16T00:59:42;3.97;;;1.40;;
20802;SDS011;10562;-33.856;151.182;2023-04-16T01:02:15;2.35;;;1.17;;
20802;SDS011;10562;-33.856;151.182;2023-04-16T01:04:46;5.55;;;1.30;;
20802;SDS011;10562;-33.856;151.182;2023-04-16T01:07:17;2.17;;;1.25;;
20802;SDS011;10562;-33.856;151.182;2023-04-16T01:09:48;1.40;;;1.10;;
20802;SDS011;10562;-33.856;151.182;2023-04-16T01:12:18;2.38;;;1.17;;
20802;SDS011;10562;-33.856;151.182;2023-04-16T01:14:49;4.13;;;1.40;;
20802;SDS011;10562;-33.856;151.182;2023-04-16T01:17:22;2.25;;;1.13;;
20802;SDS011;10562;-33.856;151.182;2023-04-16T01:19:53;4.60;;;1.40;;
20802;SDS011;10562;-33.856;151.182;2023-04-16T01:22:28;2.35;;;1.10;;
20802;SDS011;10562;-33.856;151.182;2023-04-16T01:24:59;2.65;;;1.10;;
20802;SDS011;10562;-33.856;151.182;2023-04-16T01:27:30;4.60;;;1.50;;
20802;SDS011;10562;-33.856;151.182;2023-04-16T01:30:02;5.40;;;1.40;;
20802;SDS011;10562;-33.856;151.182;2023-04-16T01:32:34;4.15;;;1.27;;
20802;SDS011;10562;-33.856;151.182;2023-04-16T01:35:05;6.53;;;1.63;;
20802;SDS011;10562;-33.856;151.182;2023-04-16T01:37:38;2.33;;;1.17;;
20802;SDS011;10562;-33.856;151.182;2023-04-16T01:40:09;1.88;;;1.17;;
20802;SDS011;10562;-33.856;151.182;2023-04-16T01:42:40;4.70;;;1.15;;
20802;SDS011;10562;-33.856;151.182;2023-04-16T01:45:11;4.70;;;1.40;;
20802;SDS011;10562;-33.856;151.182;2023-04-16T01:47:42;3.63;;;1.40;;
20802;SDS011;10562;-33.856;151.182;2023-04-16T01:50:13;3.10;;;1.20;;
20802;SDS011;10562;-33.856;151.182;2023-04-16T01:52:46;4.15;;;1.38;;
20802;SDS011;10562;-33.856;151.182;2023-04-16T01:55:17;1.55;;;1.25;;
20802;SDS011;10562;-33.856;151.182;2023-04-16T01:57:54;4.68;;;1.30;;
20802;SDS011;10562;-33.856;151.182;2023-04-16T02:00:25;4.30;;;1.20;;
20802;SDS011;10562;-33.856;151.182;2023-04-16T02:02:56;4.63;;;1.40;;
20802;SDS011;10562;-33.856;151.182;2023-04-16T02:05:28;2.42;;;1.23;;
20802;SDS011;10562;-33.856;151.182;2023-04-16T02:08:20;3.65;;;1.30;;
20802;SDS011;10562;-33.856;151.182;2023-04-16T02:10:51;4.80;;;1.20;;
20802;SDS011;10562;-33.856;151.182;2023-04-16T02:13:22;5.07;;;1.20;;
20802;SDS011;10562;-33.856;151.182;2023-04-16T02:15:53;2.78;;;1.20;;
20802;SDS011;10562;-33.856;151.182;2023-04-16T02:18:24;2.17;;;1.17;;
20802;SDS011;10562;-33.856;151.182;2023-04-16T02:20:56;3.97;;;1.10;;
20802;SDS011;10562;-33.856;151.182;2023-04-16T02:23:29;2.63;;;1.20;;
20802;SDS011;10562;-33.856;151.182;2023-04-16T02:26:01;3.42;;;1.30;;
20802;SDS011;10562;-33.856;151.182;2023-04-16T02:28:32;3.20;;;1.33;;
20802;SDS011;10562;-33.856;151.182;2023-04-16T02:31:03;3.10;;;1.30;;
20802;SDS011;10562;-33.856;151.182;2023-04-16T02:33:34;1.77;;;1.10;;
20802;SDS011;10562;-33.856;151.182;2023-04-16T02:36:05;4.68;;;1.40;;
20802;SDS011;10562;-33.856;151.182;2023-04-16T02:38:40;4.57;;;1.20;;
20802;SDS011;10562;-33.856;151.182;2023-04-16T02:41:11;4.40;;;1.38;;
20802;SDS011;10562;-33.856;151.182;2023-04-16T02:43:43;1.63;;;1.20;;
20802;SDS011;10562;-33.856;151.182;2023-04-16T02:46:14;4.05;;;1.30;;
20802;SDS011;10562;-33.856;151.182;2023-04-16T02:48:45;3.35;;;1.20;;
20802;SDS011;10562;-33.856;151.182;2023-04-16T02:51:15;2.00;;;1.15;;
20802;SDS011;10562;-33.856;151.182;2023-04-16T02:53:48;4.80;;;1.25;;
20802;SDS011;10562;-33.856;151.182;2023-04-16T02:56:19;4.80;;;1.42;;
20802;SDS011;10562;-33.856;151.182;2023-04-16T02:58:49;4.13;;;1.48;;
20802;SDS011;10562;-33.856;151.182;2023-04-16T03:01:20;4.28;;;1.40;;
20802;SDS011;10562;-33.856;151.182;2023-04-16T03:03:54;5.93;;;1.45;;
20802;SDS011;10562;-33.856;151.182;2023-04-16T03:06:25;7.10;;;1.60;;
20802;SDS011;10562;-33.856;151.182;2023-04-16T03:08:58;4.20;;;1.42;;
20802;SDS011;10562;-33.856;151.182;2023-04-16T03:11:29;3.60;;;1.27;;
20802;SDS011;10562;-33.856;151.182;2023-04-16T03:14:00;3.45;;;1.30;;
20802;SDS011;10562;-33.856;151.182;2023-04-16T03:16:30;3.13;;;1.70;;
20802;SDS011;10562;-33.856;151.182;2023-04-16T03:19:01;5.45;;;1.63;;
20802;SDS011;10562;-33.856;151.182;2023-04-16T03:21:32;4.72;;;1.50;;
20802;SDS011;10562;-33.856;151.182;2023-04-16T03:24:05;4.53;;;1.95;;
20802;SDS011;10562;-33.856;151.182;2023-04-16T03:26:36;4.03;;;1.90;;
20802;SDS011;10562;-33.856;151.182;2023-04-16T03:29:06;6.53;;;2.08;;
20802;SDS011;10562;-33.856;151.182;2023-04-16T03:31:37;7.60;;;2.00;;
20802;SDS011;10562;-33.856;151.182;2023-04-16T03:34:08;3.97;;;1.85;;
20802;SDS011;10562;-33.856;151.182;2023-04-16T03:36:39;7.25;;;2.10;;
20802;SDS011;10562;-33.856;151.182;2023-04-16T03:39:11;5.97;;;1.80;;
20802;SDS011;10562;-33.856;151.182;2023-04-16T03:41:42;4.00;;;1.70;;
20802;SDS011;10562;-33.856;151.182;2023-04-16T03:44:13;6.28;;;2.17;;
20802;SDS011;10562;-33.856;151.182;2023-04-16T03:46:43;5.20;;;2.00;;
20802;SDS011;10562;-33.856;151.182;2023-04-16T03:49:14;8.20;;;1.83;;
20802;SDS011;10562;-33.856;151.182;2023-04-16T03:51:45;4.30;;;1.85;;
20802;SDS011;10562;-33.856;151.182;2023-04-16T03:54:18;3.80;;;1.50;;
20802;SDS011;10562;-33.856;151.182;2023-04-16T03:56:49;2.55;;;1.40;;
20802;SDS011;10562;-33.856;151.182;2023-04-16T03:59:19;4.57;;;1.10;;
20802;SDS011;10562;-33.856;151.182;2023-04-16T04:01:50;3.35;;;1.15;;
20802;SDS011;10562;-33.856;151.182;2023-04-16T04:04:21;2.58;;;0.98;;
20802;SDS011;10562;-33.856;151.182;2023-04-16T04:06:52;5.80;;;1.05;;
20802;SDS011;10562;-33.856;151.182;2023-04-16T04:09:25;3.05;;;1.17;;
20802;SDS011;10562;-33.856;151.182;2023-04-16T04:11:56;4.97;;;1.17;;
20802;SDS011;10562;-33.856;151.182;2023-04-16T04:14:26;3.88;;;1.20;;
20802;SDS011;10562;-33.856;151.182;2023-04-16T04:16:57;3.70;;;1.13;;
20802;SDS011;10562;-33.856;151.182;2023-04-16T04:19:28;1.73;;;0.80;;
20802;SDS011;10562;-33.856;151.182;2023-04-16T04:21:58;2.78;;;0.90;;
20802;SDS011;10562;-33.856;151.182;2023-04-16T04:24:31;1.55;;;0.73;;
20802;SDS011;10562;-33.856;151.182;2023-04-16T04:27:05;2.45;;;0.70;;
20802;SDS011;10562;-33.856;151.182;2023-04-16T04:29:36;2.85;;;0.80;;
20802;SDS011;10562;-33.856;151.182;2023-04-16T04:32:07;3.40;;;1.23;;
20802;SDS011;10562;-33.856;151.182;2023-04-16T04:34:38;1.58;;;1.00;;
20802;SDS011;10562;-33.856;151.182;2023-04-16T04:37:09;2.00;;;0.60;;
20802;SDS011;10562;-33.856;151.182;2023-04-16T04:39:42;2.33;;;0.80;;
20802;SDS011;10562;-33.856;151.182;2023-04-16T04:42:12;1.10;;;0.43;;
20802;SDS011;10562;-33.856;151.182;2023-04-16T04:44:44;0.80;;;0.65;;
20802;SDS011;10562;-33.856;151.182;2023-04-16T04:47:15;1.40;;;0.63;;
20802;SDS011;10562;-33.856;151.182;2023-04-16T04:49:46;0.75;;;0.50;;
20802;SDS011;10562;-33.856;151.182;2023-04-16T04:52:16;4.10;;;0.80;;
20802;SDS011;10562;-33.856;151.182;2023-04-16T04:54:49;2.20;;;0.77;;
20802;SDS011;10562;-33.856;151.182;2023-04-16T04:57:20;0.77;;;0.40;;
20802;SDS011;10562;-33.856;151.182;2023-04-16T04:59:51;0.90;;;0.40;;
20802;SDS011;10562;-33.856;151.182;2023-04-16T05:02:21;2.13;;;0.70;;
20802;SDS011;10562;-33.856;151.182;2023-04-16T05:04:52;0.40;;;0.40;;
20802;SDS011;10562;-33.856;151.182;2023-04-16T05:07:23;1.27;;;0.63;;
20802;SDS011;10562;-33.856;151.182;2023-04-16T05:09:56;0.30;;;0.30;;
20802;SDS011;10562;-33.856;151.182;2023-04-16T05:12:26;0.57;;;0.30;;
20802;SDS011;10562;-33.856;151.182;2023-04-16T05:14:57;0.32;;;0.20;;
20802;SDS011;10562;-33.856;151.182;2023-04-16T05:17:28;1.23;;;0.52;;
20802;SDS011;10562;-33.856;151.182;2023-04-16T05:19:59;3.50;;;0.60;;
20802;SDS011;10562;-33.856;151.182;2023-04-16T05:22:31;2.80;;;0.57;;
20802;SDS011;10562;-33.856;151.182;2023-04-16T05:25:04;0.55;;;0.40;;
20802;SDS011;10562;-33.856;151.182;2023-04-16T05:27:35;1.10;;;0.40;;
20802;SDS011;10562;-33.856;151.182;2023-04-16T05:30:06;0.70;;;0.30;;
20802;SDS011;10562;-33.856;151.182;2023-04-16T05:32:38;1.25;;;0.70;;
20802;SDS011;10562;-33.856;151.182;2023-04-16T05:35:09;2.10;;;0.65;;
20802;SDS011;10562;-33.856;151.182;2023-04-16T05:37:40;0.75;;;0.50;;
20802;SDS011;10562;-33.856;151.182;2023-04-16T05:40:13;0.73;;;0.30;;
20802;SDS011;10562;-33.856;151.182;2023-04-16T05:42:44;1.13;;;0.47;;
20802;SDS011;10562;-33.856;151.182;2023-04-16T05:45:15;0.70;;;0.35;;
20802;SDS011;10562;-33.856;151.182;2023-04-16T05:47:46;0.32;;;0.30;;
20802;SDS011;10562;-33.856;151.182;2023-04-16T05:50:17;0.38;;;0.35;;
20802;SDS011;10562;-33.856;151.182;2023-04-16T05:52:47;0.60;;;0.40;;
20802;SDS011;10562;-33.856;151.182;2023-04-16T05:55:20;0.38;;;0.30;;
20802;SDS011;10562;-33.856;151.182;2023-04-16T05:57:51;0.77;;;0.47;;
20802;SDS011;10562;-33.856;151.182;2023-04-16T06:00:22;0.32;;;0.30;;
20802;SDS011;10562;-33.856;151.182;2023-04-16T06:02:53;0.57;;;0.30;;
20802;SDS011;10562;-33.856;151.182;2023-04-16T06:05:24;0.55;;;0.47;;
20802;SDS011;10562;-33.856;151.182;2023-04-16T06:07:55;1.02;;;0.38;;
20802;SDS011;10562;-33.856;151.182;2023-04-16T06:10:28;0.80;;;0.70;;
20802;SDS011;10562;-33.856;151.182;2023-04-16T06:12:58;0.70;;;0.50;;
20802;SDS011;10562;-33.856;151.182;2023-04-16T06:15:29;0.57;;;0.40;;
20802;SDS011;10562;-33.856;151.182;2023-04-16T06:18:00;0.55;;;0.40;;
20802;SDS011;10562;-33.856;151.182;2023-04-16T06:20:31;1.35;;;0.60;;
20802;SDS011;10562;-33.856;151.182;2023-04-16T06:23:01;0.30;;;0.30;;
20802;SDS011;10562;-33.856;151.182;2023-04-16T06:25:34;1.00;;;0.32;;
20802;SDS011;10562;-33.856;151.182;2023-04-16T06:28:08;0.20;;;0.20;;
20802;SDS011;10562;-33.856;151.182;2023-04-16T06:30:39;0.35;;;0.32;;
20802;SDS011;10562;-33.856;151.182;2023-04-16T06:33:09;0.68;;;0.30;;
20802;SDS011;10562;-33.856;151.182;2023-04-16T06:35:40;1.45;;;0.30;;
20802;SDS011;10562;-33.856;151.182;2023-04-16T06:38:11;1.83;;;0.40;;
20802;SDS011;10562;-33.856;151.182;2023-04-16T06:40:43;1.38;;;0.38;;
20802;SDS011;10562;-33.856;151.182;2023-04-16T06:43:14;0.35;;;0.30;;
20802;SDS011;10562;-33.856;151.182;2023-04-16T06:45:45;1.27;;;0.50;;
20802;SDS011;10562;-33.856;151.182;2023-04-16T06:48:16;0.60;;;0.43;;
20802;SDS011;10562;-33.856;151.182;2023-04-16T06:50:47;0.30;;;0.30;;
20802;SDS011;10562;-33.856;151.182;2023-04-16T06:53:18;0.35;;;0.30;;
20802;SDS011;10562;-33.856;151.182;2023-04-16T06:55:51;0.85;;;0.32;;
20802;SDS011;10562;-33.856;151.182;2023-04-16T06:58:22;1.10;;;0.20;;
20802;SDS011;10562;-33.856;151.182;2023-04-16T07:00:53;0.30;;;0.30;;
20802;SDS011;10562;-33.856;151.182;2023-04-16T07:03:24;0.30;;;0.30;;
20802;SDS011;10562;-33.856;151.182;2023-04-16T07:05:55;0.40;;;0.30;;
20802;SDS011;10562;-33.856;151.182;2023-04-16T07:08:26;0.35;;;0.30;;
20802;SDS011;10562;-33.856;151.182;2023-04-16T07:10:58;0.35;;;0.35;;
20802;SDS011;10562;-33.856;151.182;2023-04-16T07:13:29;0.60;;;0.50;;
20802;SDS011;10562;-33.856;151.182;2023-04-16T07:16:00;0.88;;;0.50;;
20802;SDS011;10562;-33.856;151.182;2023-04-16T07:18:31;1.33;;;0.40;;
20802;SDS011;10562;-33.856;151.182;2023-04-16T07:21:02;0.82;;;0.50;;
20802;SDS011;10562;-33.856;151.182;2023-04-16T07:23:33;0.93;;;0.50;;
20802;SDS011;10562;-33.856;151.182;2023-04-16T07:26:06;1.27;;;0.70;;
20802;SDS011;10562;-33.856;151.182;2023-04-16T07:28:39;1.33;;;0.60;;
20802;SDS011;10562;-33.856;151.182;2023-04-16T07:31:10;1.08;;;0.50;;
20802;SDS011;10562;-33.856;151.182;2023-04-16T07:33:41;1.77;;;0.60;;
20802;SDS011;10562;-33.856;151.182;2023-04-16T07:36:15;0.70;;;0.47;;
20802;SDS011;10562;-33.856;151.182;2023-04-16T07:38:45;1.00;;;0.70;;
20802;SDS011;10562;-33.856;151.182;2023-04-16T07:41:19;1.05;;;0.73;;
20802;SDS011;10562;-33.856;151.182;2023-04-16T07:43:50;1.08;;;0.50;;
20802;SDS011;10562;-33.856;151.182;2023-04-16T07:46:21;1.17;;;0.60;;
20802;SDS011;10562;-33.856;151.182;2023-04-16T07:48:51;1.08;;;0.60;;
20802;SDS011;10562;-33.856;151.182;2023-04-16T07:51:22;1.25;;;0.65;;
20802;SDS011;10562;-33.856;151.182;2023-04-16T07:53:54;0.80;;;0.60;;
20802;SDS011;10562;-33.856;151.182;2023-04-16T07:56:26;0.40;;;0.40;;
20802;SDS011;10562;-33.856;151.182;2023-04-16T07:58:57;2.17;;;0.80;;
20802;SDS011;10562;-33.856;151.182;2023-04-16T08:01:28;1.40;;;0.80;;
20802;SDS011;10562;-33.856;151.182;2023-04-16T08:03:59;0.80;;;0.55;;
20802;SDS011;10562;-33.856;151.182;2023-04-16T08:06:30;1.90;;;0.80;;
20802;SDS011;10562;-33.856;151.182;2023-04-16T08:09:01;1.30;;;0.70;;
20802;SDS011;10562;-33.856;151.182;2023-04-16T08:11:34;0.98;;;0.57;;
20802;SDS011;10562;-33.856;151.182;2023-04-16T08:14:05;1.10;;;0.60;;
20802;SDS011;10562;-33.856;151.182;2023-04-16T08:16:35;2.00;;;0.63;;
20802;SDS011;10562;-33.856;151.182;2023-04-16T08:19:07;1.25;;;0.80;;
20802;SDS011;10562;-33.856;151.182;2023-04-16T08:21:37;1.33;;;0.52;;
20802;SDS011;10562;-33.856;151.182;2023-04-16T08:24:08;3.03;;;0.80;;
20802;SDS011;10562;-33.856;151.182;2023-04-16T08:26:41;1.00;;;0.60;;
20802;SDS011;10562;-33.856;151.182;2023-04-16T08:29:12;2.28;;;0.50;;
20802;SDS011;10562;-33.856;151.182;2023-04-16T08:31:43;0.90;;;0.57;;
20802;SDS011;10562;-33.856;151.182;2023-04-16T08:34:14;1.77;;;0.60;;
20802;SDS011;10562;-33.856;151.182;2023-04-16T08:36:44;0.82;;;0.70;;
20802;SDS011;10562;-33.856;151.182;2023-04-16T08:39:15;4.18;;;1.08;;
20802;SDS011;10562;-33.856;151.182;2023-04-16T08:41:48;1.38;;;0.90;;
20802;SDS011;10562;-33.856;151.182;2023-04-16T08:44:23;3.15;;;1.10;;
20802;SDS011;10562;-33.856;151.182;2023-04-16T08:46:56;1.40;;;0.95;;
20802;SDS011;10562;-33.856;151.182;2023-04-16T08:49:27;1.77;;;1.05;;
20802;SDS011;10562;-33.856;151.182;2023-04-16T08:51:59;1.55;;;0.90;;
20802;SDS011;10562;-33.856;151.182;2023-04-16T08:54:35;1.05;;;0.75;;
20802;SDS011;10562;-33.856;151.182;2023-04-16T08:57:13;2.00;;;0.82;;
20802;SDS011;10562;-33.856;151.182;2023-04-16T08:59:51;0.90;;;0.80;;
20802;SDS011;10562;-33.856;151.182;2023-04-16T09:02:24;1.75;;;0.90;;
20802;SDS011;10562;-33.856;151.182;2023-04-16T09:04:55;1.25;;;0.80;;
20802;SDS011;10562;-33.856;151.182;2023-04-16T09:07:31;1.10;;;0.85;;
20802;SDS011;10562;-33.856;151.182;2023-04-16T09:10:03;1.20;;;0.80;;
20802;SDS011;10562;-33.856;151.182;2023-04-16T09:12:38;1.48;;;0.90;;
20802;SDS011;10562;-33.856;151.182;2023-04-16T09:15:10;1.70;;;1.00;;
20802;SDS011;10562;-33.856;151.182;2023-04-16T09:17:41;2.35;;;1.20;;
20802;SDS011;10562;-33.856;151.182;2023-04-16T09:20:12;2.13;;;1.00;;
20802;SDS011;10562;-33.856;151.182;2023-04-16T09:22:43;2.67;;;0.88;;
20802;SDS011;10562;-33.856;151.182;2023-04-16T09:25:14;2.00;;;0.80;;
20802;SDS011;10562;-33.856;151.182;2023-04-16T09:27:47;1.80;;;0.93;;
20802;SDS011;10562;-33.856;151.182;2023-04-16T09:30:19;1.50;;;0.88;;
20802;SDS011;10562;-33.856;151.182;2023-04-16T09:32:53;2.45;;;1.08;;
20802;SDS011;10562;-33.856;151.182;2023-04-16T09:35:45;2.08;;;1.17;;
20802;SDS011;10562;-33.856;151.182;2023-04-16T09:38:17;2.75;;;1.10;;
20802;SDS011;10562;-33.856;151.182;2023-04-16T09:40:48;1.88;;;1.30;;
20802;SDS011;10562;-33.856;151.182;2023-04-16T09:43:37;2.03;;;1.35;;
20802;SDS011;10562;-33.856;151.182;2023-04-16T09:46:09;20.10;;;7.40;;
20802;SDS011;10562;-33.856;151.182;2023-04-16T09:48:40;4.72;;;2.30;;
20802;SDS011;10562;-33.856;151.182;2023-04-16T09:51:15;5.05;;;2.92;;
20802;SDS011;10562;-33.856;151.182;2023-04-16T09:53:45;3.95;;;2.15;;
20802;SDS011;10562;-33.856;151.182;2023-04-16T09:56:22;2.50;;;1.50;;
20802;SDS011;10562;-33.856;151.182;2023-04-16T09:58:58;3.60;;;1.05;;
20802;SDS011;10562;-33.856;151.182;2023-04-16T10:01:29;2.25;;;0.90;;
20802;SDS011;10562;-33.856;151.182;2023-04-16T10:04:00;2.50;;;1.10;;
20802;SDS011;10562;-33.856;151.182;2023-04-16T10:06:34;3.60;;;1.10;;
20802;SDS011;10562;-33.856;151.182;2023-04-16T10:09:06;2.38;;;1.10;;
20802;SDS011;10562;-33.856;151.182;2023-04-16T10:11:37;3.42;;;1.00;;
20802;SDS011;10562;-33.856;151.182;2023-04-16T10:14:10;2.10;;;1.02;;
20802;SDS011;10562;-33.856;151.182;2023-04-16T10:16:41;1.42;;;0.80;;
20802;SDS011;10562;-33.856;151.182;2023-04-16T10:19:12;1.92;;;1.20;;
20802;SDS011;10562;-33.856;151.182;2023-04-16T10:21:44;1.80;;;0.90;;
20802;SDS011;10562;-33.856;151.182;2023-04-16T10:24:15;2.38;;;1.10;;
20802;SDS011;10562;-33.856;151.182;2023-04-16T10:26:47;1.92;;;0.98;;
20802;SDS011;10562;-33.856;151.182;2023-04-16T10:29:24;9.32;;;4.35;;
20802;SDS011;10562;-33.856;151.182;2023-04-16T10:31:57;4.60;;;2.25;;
20802;SDS011;10562;-33.856;151.182;2023-04-16T10:34:29;2.90;;;1.50;;
20802;SDS011;10562;-33.856;151.182;2023-04-16T10:37:00;2.33;;;1.10;;
20802;SDS011;10562;-33.856;151.182;2023-04-16T10:39:34;4.30;;;0.95;;
20802;SDS011;10562;-33.856;151.182;2023-04-16T10:42:11;0.80;;;0.70;;
20802;SDS011;10562;-33.856;151.182;2023-04-16T10:45:04;1.23;;;0.70;;
20802;SDS011;10562;-33.856;151.182;2023-04-16T10:47:45;1.15;;;0.60;;
20802;SDS011;10562;-33.856;151.182;2023-04-16T10:50:19;1.88;;;1.00;;
20802;SDS011;10562;-33.856;151.182;2023-04-16T10:52:56;0.77;;;0.70;;
20802;SDS011;10562;-33.856;151.182;2023-04-16T10:58:52;3.08;;;0.95;;
20802;SDS011;10562;-33.856;151.182;2023-04-16T11:01:30;2.50;;;0.80;;
20802;SDS011;10562;-33.856;151.182;2023-04-16T11:07:00;3.47;;;0.60;;
20802;SDS011;10562;-33.856;151.182;2023-04-16T11:09:45;1.42;;;0.70;;
20802;SDS011;10562;-33.856;151.182;2023-04-16T11:12:23;0.88;;;0.50;;
20802;SDS011;10562;-33.856;151.182;2023-04-16T11:14:57;1.08;;;0.55;;
20802;SDS011;10562;-33.856;151.182;2023-04-16T11:17:35;2.03;;;0.70;;
20802;SDS011;10562;-33.856;151.182;2023-04-16T11:20:08;2.85;;;0.80;;
20802;SDS011;10562;-33.856;151.182;2023-04-16T11:22:45;1.27;;;0.68;;
20802;SDS011;10562;-33.856;151.182;2023-04-16T11:25:18;0.80;;;0.60;;
20802;SDS011;10562;-33.856;151.182;2023-04-16T11:27:49;0.98;;;0.57;;
20802;SDS011;10562;-33.856;151.182;2023-04-16T11:30:27;1.27;;;0.55;;
20802;SDS011;10562;-33.856;151.182;2023-04-16T11:33:01;2.97;;;0.63;;
20802;SDS011;10562;-33.856;151.182;2023-04-16T11:35:31;2.75;;;0.60;;
20802;SDS011;10562;-33.856;151.182;2023-04-16T11:38:03;0.60;;;0.50;;
20802;SDS011;10562;-33.856;151.182;2023-04-16T11:40:34;2.38;;;0.70;;
20802;SDS011;10562;-33.856;151.182;2023-04-16T11:43:11;2.15;;;0.80;;
20802;SDS011;10562;-33.856;151.182;2023-04-16T11:45:54;1.30;;;0.60;;
20802;SDS011;10562;-33.856;151.182;2023-04-16T11:48:40;1.10;;;0.50;;
20802;SDS011;10562;-33.856;151.182;2023-04-16T11:51:15;1.75;;;0.80;;
20802;SDS011;10562;-33.856;151.182;2023-04-16T11:53:48;0.98;;;0.65;;
20802;SDS011;10562;-33.856;151.182;2023-04-16T11:56:26;2.22;;;0.45;;
20802;SDS011;10562;-33.856;151.182;2023-04-16T11:59:08;0.93;;;0.70;;
20802;SDS011;10562;-33.856;151.182;2023-04-16T12:01:41;1.00;;;0.63;;
20802;SDS011;10562;-33.856;151.182;2023-04-16T12:04:17;2.45;;;0.70;;
20802;SDS011;10562;-33.856;151.182;2023-04-16T12:07:05;1.88;;;0.77;;
20802;SDS011;10562;-33.856;151.182;2023-04-16T12:09:37;1.00;;;0.70;;
20802;SDS011;10562;-33.856;151.182;2023-04-16T12:12:27;1.90;;;0.80;;
20802;SDS011;10562;-33.856;151.182;2023-04-16T12:14:58;1.52;;;0.80;;
20802;SDS011;10562;-33.856;151.182;2023-04-16T12:17:30;1.55;;;0.80;;
20802;SDS011;10562;-33.856;151.182;2023-04-16T12:20:06;1.48;;;0.98;;
20802;SDS011;10562;-33.856;151.182;2023-04-16T12:22:38;4.00;;;1.10;;
20802;SDS011;10562;-33.856;151.182;2023-04-16T12:25:13;3.00;;;1.00;;
20802;SDS011;10562;-33.856;151.182;2023-04-16T12:27:45;1.88;;;1.10;;
20802;SDS011;10562;-33.856;151.182;2023-04-16T12:30:16;1.45;;;0.80;;
20802;SDS011;10562;-33.856;151.182;2023-04-16T12:32:48;1.48;;;0.88;;
20802;SDS011;10562;-33.856;151.182;2023-04-16T12:35:33;2.53;;;0.90;;
20802;SDS011;10562;-33.856;151.182;2023-04-16T12:38:04;1.00;;;0.82;;
20802;SDS011;10562;-33.856;151.182;2023-04-16T12:40:35;1.50;;;0.88;;
20802;SDS011;10562;-33.856;151.182;2023-04-16T12:43:06;1.42;;;0.90;;
20802;SDS011;10562;-33.856;151.182;2023-04-16T12:45:38;1.75;;;0.80;;
20802;SDS011;10562;-33.856;151.182;2023-04-16T12:48:09;2.78;;;0.90;;
20802;SDS011;10562;-33.856;151.182;2023-04-16T12:50:42;2.85;;;1.00;;
20802;SDS011;10562;-33.856;151.182;2023-04-16T12:53:13;3.10;;;0.80;;
20802;SDS011;10562;-33.856;151.182;2023-04-16T12:55:44;1.77;;;0.80;;
20802;SDS011;10562;-33.856;151.182;2023-04-16T12:58:14;2.65;;;0.90;;
20802;SDS011;10562;-33.856;151.182;2023-04-16T13:00:45;1.10;;;0.73;;
20802;SDS011;10562;-33.856;151.182;2023-04-16T13:03:16;1.85;;;0.70;;
20802;SDS011;10562;-33.856;151.182;2023-04-16T13:05:49;1.20;;;0.50;;
20802;SDS011;10562;-33.856;151.182;2023-04-16T13:08:21;1.30;;;0.63;;
20802;SDS011;10562;-33.856;151.182;2023-04-16T13:10:52;3.15;;;0.73;;
20802;SDS011;10562;-33.856;151.182;2023-04-16T13:13:23;1.17;;;0.52;;
20802;SDS011;10562;-33.856;151.182;2023-04-16T13:15:54;1.58;;;0.70;;
20802;SDS011;10562;-33.856;151.182;2023-04-16T13:18:25;3.38;;;0.70;;
20802;SDS011;10562;-33.856;151.182;2023-04-16T13:20:57;1.15;;;0.63;;
20802;SDS011;10562;-33.856;151.182;2023-04-16T13:23:28;1.25;;;0.57;;
20802;SDS011;10562;-33.856;151.182;2023-04-16T13:25:59;1.40;;;0.65;;
20802;SDS011;10562;-33.856;151.182;2023-04-16T13:28:30;1.10;;;0.73;;
20802;SDS011;10562;-33.856;151.182;2023-04-16T13:31:00;1.75;;;0.63;;
20802;SDS011;10562;-33.856;151.182;2023-04-16T13:33:32;1.17;;;0.65;;
20802;SDS011;10562;-33.856;151.182;2023-04-16T13:36:04;2.95;;;1.08;;
20802;SDS011;10562;-33.856;151.182;2023-04-16T13:38:35;0.88;;;0.70;;
20802;SDS011;10562;-33.856;151.182;2023-04-16T13:41:07;0.90;;;0.60;;
20802;SDS011;10562;-33.856;151.182;2023-04-16T13:43:38;0.88;;;0.60;;
20802;SDS011;10562;-33.856;151.182;2023-04-16T13:46:09;1.55;;;0.73;;
20802;SDS011;10562;-33.856;151.182;2023-04-16T13:48:40;1.00;;;0.65;;
20802;SDS011;10562;-33.856;151.182;2023-04-16T13:51:13;0.70;;;0.50;;
20802;SDS011;10562;-33.856;151.182;2023-04-16T13:53:43;0.93;;;0.52;;
20802;SDS011;10562;-33.856;151.182;2023-04-16T13:56:14;0.50;;;0.50;;
20802;SDS011;10562;-33.856;151.182;2023-04-16T13:58:45;3.67;;;0.85;;
20802;SDS011;10562;-33.856;151.182;2023-04-16T14:01:17;2.40;;;0.60;;
20802;SDS011;10562;-33.856;151.182;2023-04-16T14:03:48;0.60;;;0.60;;
20802;SDS011;10562;-33.856;151.182;2023-04-16T14:06:21;1.33;;;0.63;;
20802;SDS011;10562;-33.856;151.182;2023-04-16T14:08:52;2.33;;;0.60;;
20802;SDS011;10562;-33.856;151.182;2023-04-16T14:11:22;2.85;;;0.60;;
20802;SDS011;10562;-33.856;151.182;2023-04-16T14:13:53;2.78;;;0.73;;
20802;SDS011;10562;-33.856;151.182;2023-04-16T14:16:24;3.08;;;0.68;;
20802;SDS011;10562;-33.856;151.182;2023-04-16T14:18:55;1.67;;;0.75;;
20802;SDS011;10562;-33.856;151.182;2023-04-16T14:21:28;1.40;;;0.70;;
20802;SDS011;10562;-33.856;151.182;2023-04-16T14:23:59;1.30;;;0.60;;
20802;SDS011;10562;-33.856;151.182;2023-04-16T14:26:30;1.25;;;0.70;;
20802;SDS011;10562;-33.856;151.182;2023-04-16T14:29:01;1.05;;;0.60;;
20802;SDS011;10562;-33.856;151.182;2023-04-16T14:31:32;1.45;;;0.60;;
20802;SDS011;10562;-33.856;151.182;2023-04-16T14:34:03;2.08;;;0.40;;
20802;SDS011;10562;-33.856;151.182;2023-04-16T14:36:36;1.45;;;0.55;;
20802;SDS011;10562;-33.856;151.182;2023-04-16T14:39:07;0.82;;;0.52;;
20802;SDS011;10562;-33.856;151.182;2023-04-16T14:41:38;1.70;;;0.60;;
20802;SDS011;10562;-33.856;151.182;2023-04-16T14:44:11;1.80;;;0.40;;